Flight Track Log - Related Links

Times and Time Zones

All times are in EDT time to prevent confusion due to time zone crossing. See the UAL4563 flight status page for this flight to view local times or setup timezone preferences in your user account.

Time Position Orientation Groundspeed Altitude Reporting Facility
EDT Latitude Longitude Course Direction KTS MPH feet Rate Location/Type
Tue 07:12:16 PM 41.3939 -81.8869 273° West 172 198 1,800  Level Cleveland Center
Tue 07:12:52 PM 41.3956 -81.9283 273° West 203 234 3,100 2,298 Climbing Cleveland Center
Tue 07:13:50 PM 41.4364 -81.9872 313° West 223 257 5,400 2,492 Climbing Cleveland Center
Tue 07:14:50 PM 41.5039 -81.9278 33° Northeast 202 232 8,000 2,500 Climbing Cleveland Center
Tue 07:15:50 PM 41.5611 -81.8403 49° Northeast 288 331 10,400 1,450 Climbing Cleveland Center
Tue 07:16:50 PM 41.6206 -81.7497 49° Northeast 314 361 10,900 900 Climbing Cleveland Center
Tue 07:17:50 PM 41.6944 -81.6369 49° Northeast 374 430 12,200 1,600 Climbing Cleveland Center
Tue 07:18:50 PM 41.7706 -81.5214 49° Northeast 403 464 14,100 1,950 Climbing Cleveland Center
Tue 07:19:50 PM 41.8361 -81.3997 54° Northeast 403 464 16,100 2,150 Climbing Cleveland Center
Tue 07:20:50 PM 41.8622 -81.2550 76° East 390 449 18,400 1,800 Climbing Cleveland Center
Tue 07:21:50 PM 41.8900 -81.0964 77° East 390 449 19,700 1,600 Climbing Cleveland Center
Tue 07:22:50 PM 41.9136 -80.9486 78° East 397 457 21,600 1,700 Climbing Cleveland Center
Tue 07:23:50 PM 41.9369 -80.8036 78° East 397 457 23,100 1,350 Climbing Cleveland Center
Tue 07:24:50 PM 41.9619 -80.6475 78° East 412 474 24,300 1,200 Climbing Cleveland Center
Tue 07:25:50 PM 41.9850 -80.4911 79° East 418 481 25,500 1,200 Climbing Cleveland Center
Tue 07:26:50 PM 42.0097 -80.3261 79° East 437 503 26,700 1,200 Climbing Cleveland Center
Tue 07:27:50 PM 42.0364 -80.1667 77° East 442 509 27,900 1,150 Climbing Cleveland Center
Tue 07:28:50 PM 42.0586 -80.0014 80° East 442 509 29,000 1,100 Climbing Cleveland Center
Tue 07:29:50 PM 42.0828 -79.8558 77° East 442 509 30,100 1,100 Climbing Cleveland Center
Tue 07:30:50 PM 42.1067 -79.6958 79° East 442 509 31,200 1,150 Climbing Cleveland Center
Tue 07:31:50 PM 42.1303 -79.5278 79° East 447 514 32,400 1,150 Climbing Cleveland Center
Tue 07:32:50 PM 42.1536 -79.3647 79° East 447 514 33,500 1,150 Climbing Cleveland Center
Tue 07:33:50 PM 42.1767 -79.1992 79° East 447 514 34,700 750 Climbing Cleveland Center
Tue 07:34:50 PM 42.1997 -79.0306 79° East 447 514 35,000 149 Climbing Cleveland Center
Tue 07:35:51 PM 42.2261 -78.8364 80° East 459 528 35,000  Level Cleveland Center
Tue 07:36:50 PM 42.2500 -78.6478 80° East 481 554 35,000  Level Cleveland Center
Tue 07:37:50 PM 42.2719 -78.4617 81° East 494 568 35,000  Level Cleveland Center
Tue 07:38:50 PM 42.2975 -78.2728 80° East 507 583 35,000  Level Cleveland Center
Tue 07:39:50 PM 42.3186 -78.0839 81° East 507 583 35,000  Level Cleveland Center
Tue 07:40:50 PM 42.3414 -77.8919 81° East 507 583 35,000  Level Cleveland Center
Tue 07:41:50 PM 42.3617 -77.7028 82° East 507 583 35,000  Level Cleveland Center
Tue 07:42:51 PM 42.3861 -77.5161 80° East 507 583 35,000  Level Cleveland Center
Tue 07:43:50 PM 42.4061 -77.3322 82° East 502 578 35,000  Level Cleveland Center
Tue 07:45:28 PM 42.4358 -77.0517 82° East 510 587 35,000  Level Boston Center
Tue 07:46:28 PM 42.4578 -76.8675 81° East 499 574 35,000  Level Boston Center
Tue 07:47:39 PM 42.4775 -76.6831 82° East 499 574 35,000  Level Boston Center
Tue 07:48:39 PM 42.5000 -76.4675 82° East 499 574 35,000  Level Boston Center
Tue 07:49:40 PM 42.5183 -76.2942 82° East 479 551 35,000  Level Boston Center
Tue 07:50:40 PM 42.5369 -76.1147 82° East 454 522 35,000  Level Boston Center
Tue 07:51:40 PM 42.5522 -75.9606 82° East 431 496 35,000  Level Boston Center
Tue 07:52:40 PM 42.5672 -75.8119 82° East 410 472 35,000 -400 Level Boston Center
Tue 07:53:40 PM 42.5797 -75.6661 83° East 397 457 34,200 -1,650 Descending Boston Center
Tue 07:54:40 PM 42.5944 -75.5117 83° East 392 451 31,700 -2,400 Descending Boston Center
Tue 07:55:40 PM 42.6111 -75.3544 82° East 398 458 29,400 -2,100 Descending Boston Center
Tue 07:56:40 PM 42.6275 -75.1972 82° East 415 478 27,500 -2,300 Descending Boston Center
Tue 07:57:40 PM 42.6394 -75.0481 84° East 433 498 24,800 -2,250 Descending Boston Center
Tue 07:58:40 PM 42.6531 -74.8989 83° East 425 489 23,000 -900 Descending Boston Center
Tue 07:59:40 PM 42.6667 -74.7442 83° East 412 474 23,000  Level Boston Center
Tue 08:00:40 PM 42.6803 -74.5839 83° East 412 474 23,000  Level Boston Center
Tue 08:01:40 PM 42.6958 -74.4147 83° East 430 495 23,000  Level Boston Center
Tue 08:02:39 PM 42.7089 -74.2514 84° East 430 495 23,000  Level Boston Center
Tue 08:03:39 PM 42.7242 -74.0822 83° East 437 503 23,000  Level Boston Center
Tue 08:04:40 PM 42.7367 -73.9186 84° East 443 510 23,000  Level Boston Center
Tue 08:05:39 PM 42.7492 -73.7492 84° East 443 510 23,000  Level Boston Center
Tue 08:06:40 PM 42.7575 -73.5656 86° East 443 510 23,000  Level Boston Center
Tue 08:07:39 PM 42.7633 -73.3931 87° East 443 510 23,000 -252 Level Boston Center
Tue 08:08:39 PM 42.7686 -73.2264 87° East 443 510 22,500 -893 Descending Boston Center
Tue 08:09:40 PM 42.7739 -73.0653 87° East 438 504 21,200 -1,537 Descending Boston Center
Tue 08:10:40 PM 42.7786 -72.9125 88° East 433 498 19,400 -1,900 Descending Boston Center
Tue 08:11:40 PM 42.7833 -72.7653 87° East 422 486 17,400 -1,750 Descending Boston Center
Tue 08:12:40 PM 42.7858 -72.6156 89° East 401 461 15,900 -1,700 Descending Boston Center
Tue 08:13:40 PM 42.7922 -72.4656 87° East 396 456 14,000 -1,966 Descending Boston Center
Tue 08:14:39 PM 42.7942 -72.3242 89° East 382 440 12,000 -1,714 Descending Boston Center
Tue 08:15:39 PM 42.8003 -72.1856 87° East 354 407 10,600 -1,140 Descending Boston Center
Tue 08:16:40 PM 42.8083 -72.0778 84° East 308 354 9,700 -1,150 Descending Boston Center
Tue 08:17:39 PM 42.8414 -71.9928 62° Northeast 265 305 8,300 -1,412 Descending Boston Center
Tue 08:18:39 PM 42.8367 -71.8908 94° East 251 289 6,900 -1,500 Descending Boston Center
Tue 08:19:39 PM 42.8319 -71.7917 94° East 256 295 5,300 -950 Descending Boston Center
Tue 08:20:39 PM 42.8272 -71.7011 94° East 256 295 5,000 -150 Descending Boston Center
Tue 08:21:39 PM 42.8225 -71.6164 94° East 237 273 5,000 -298 Level Boston Center
Tue 08:22:40 PM 42.7992 -71.5486 115° Southeast 208 239 4,400 -992 Descending Boston Center
Tue 08:23:40 PM 42.7672 -71.4842 124° Southeast 201 231 3,000 -1,160 Descending Boston Center
Tue 08:24:39 PM 42.7583 -71.4136 100° East 187 215 2,100 -500 Descending Boston Center
Tue 08:25:40 PM 42.7725 -71.3597 70° East 158 182 2,000 -50 Descending Boston Center
Tue 08:26:39 PM 42.8100 -71.3703 348° North 103 119 2,000  Level Boston Center
Tue 08:27:40 PM 42.8478 -71.3839 345° North 128 147 2,000 -397 Level Boston Center
Tue 08:28:40 PM 42.8792 -71.4058 333° Northwest 133 153 1,200 -700 Descending Boston Center
Tue 08:29:40 PM 42.9106 -71.4253 336° Northwest 133 153 600 -600 Descending Boston Center
Tue 08:31:00 PM 42.9167 -71.4333 316° Northwest  Level FlightAware Approximate
Tue 08:38:00 PM 42.9328 -71.4358 316° Northwest  Level Estimated

Login

Don't have an account? Register now (free) for customized features, flight alerts, and more!